sensor_id;sensor_type;location;lat;lon;timestamp;P1;durP1;ratioP1;P2;durP2;ratioP2
11086;SDS011;5597;47.588;9.642;2022-07-06T00:01:15;2.90;;;2.40;;
11086;SDS011;5597;47.588;9.642;2022-07-06T00:03:41;4.03;;;2.53;;
11086;SDS011;5597;47.588;9.642;2022-07-06T00:06:07;2.83;;;2.53;;
11086;SDS011;5597;47.588;9.642;2022-07-06T00:08:33;2.93;;;2.60;;
11086;SDS011;5597;47.588;9.642;2022-07-06T00:10:59;2.70;;;2.50;;
11086;SDS011;5597;47.588;9.642;2022-07-06T00:13:25;2.70;;;2.50;;
11086;SDS011;5597;47.588;9.642;2022-07-06T00:15:51;2.60;;;2.40;;
11086;SDS011;5597;47.588;9.642;2022-07-06T00:18:17;2.70;;;2.50;;
11086;SDS011;5597;47.588;9.642;2022-07-06T00:20:42;2.60;;;2.40;;
11086;SDS011;5597;47.588;9.642;2022-07-06T00:23:08;2.93;;;2.60;;
11086;SDS011;5597;47.588;9.642;2022-07-06T00:25:33;2.60;;;2.40;;
11086;SDS011;5597;47.588;9.642;2022-07-06T00:27:59;2.90;;;2.70;;
11086;SDS011;5597;47.588;9.642;2022-07-06T00:30:25;2.63;;;2.43;;
11086;SDS011;5597;47.588;9.642;2022-07-06T00:32:50;2.60;;;2.40;;
11086;SDS011;5597;47.588;9.642;2022-07-06T00:35:16;2.80;;;2.60;;
11086;SDS011;5597;47.588;9.642;2022-07-06T00:37:41;2.73;;;2.53;;
11086;SDS011;5597;47.588;9.642;2022-07-06T00:40:07;3.00;;;2.70;;
11086;SDS011;5597;47.588;9.642;2022-07-06T00:42:43;2.50;;;2.30;;
11086;SDS011;5597;47.588;9.642;2022-07-06T00:45:10;3.30;;;2.50;;
11086;SDS011;5597;47.588;9.642;2022-07-06T00:47:37;4.70;;;2.77;;
11086;SDS011;5597;47.588;9.642;2022-07-06T00:50:04;2.70;;;2.50;;
11086;SDS011;5597;47.588;9.642;2022-07-06T00:52:56;2.70;;;2.50;;
11086;SDS011;5597;47.588;9.642;2022-07-06T00:55:25;3.23;;;2.90;;
11086;SDS011;5597;47.588;9.642;2022-07-06T00:57:52;3.07;;;2.87;;
11086;SDS011;5597;47.588;9.642;2022-07-06T01:00:20;3.07;;;2.70;;
11086;SDS011;5597;47.588;9.642;2022-07-06T01:02:51;2.70;;;2.50;;
11086;SDS011;5597;47.588;9.642;2022-07-06T01:05:17;2.97;;;2.67;;
11086;SDS011;5597;47.588;9.642;2022-07-06T01:07:44;3.20;;;3.00;;
11086;SDS011;5597;47.588;9.642;2022-07-06T01:10:11;2.60;;;2.40;;
11086;SDS011;5597;47.588;9.642;2022-07-06T01:12:39;2.70;;;2.50;;
11086;SDS011;5597;47.588;9.642;2022-07-06T01:15:08;2.73;;;2.53;;
11086;SDS011;5597;47.588;9.642;2022-07-06T01:17:54;2.90;;;2.70;;
11086;SDS011;5597;47.588;9.642;2022-07-06T01:20:20;3.00;;;2.80;;
11086;SDS011;5597;47.588;9.642;2022-07-06T01:22:47;2.90;;;2.70;;
11086;SDS011;5597;47.588;9.642;2022-07-06T01:25:14;2.97;;;2.77;;
11086;SDS011;5597;47.588;9.642;2022-07-06T01:27:40;3.07;;;2.80;;
11086;SDS011;5597;47.588;9.642;2022-07-06T01:30:07;3.43;;;3.13;;
11086;SDS011;5597;47.588;9.642;2022-07-06T01:32:34;2.70;;;2.50;;
11086;SDS011;5597;47.588;9.642;2022-07-06T01:35:01;3.00;;;2.80;;
11086;SDS011;5597;47.588;9.642;2022-07-06T01:37:27;2.63;;;2.43;;
11086;SDS011;5597;47.588;9.642;2022-07-06T01:39:52;2.70;;;2.50;;
11086;SDS011;5597;47.588;9.642;2022-07-06T01:42:18;2.90;;;2.50;;
11086;SDS011;5597;47.588;9.642;2022-07-06T01:44:44;2.93;;;2.73;;
11086;SDS011;5597;47.588;9.642;2022-07-06T01:47:10;3.40;;;2.90;;
11086;SDS011;5597;47.588;9.642;2022-07-06T01:49:36;3.10;;;2.90;;
11086;SDS011;5597;47.588;9.642;2022-07-06T01:52:02;3.40;;;2.80;;
11086;SDS011;5597;47.588;9.642;2022-07-06T01:54:28;4.10;;;3.10;;
11086;SDS011;5597;47.588;9.642;2022-07-06T01:56:55;2.90;;;2.70;;
11086;SDS011;5597;47.588;9.642;2022-07-06T01:59:20;3.43;;;3.13;;
11086;SDS011;5597;47.588;9.642;2022-07-06T02:01:46;3.40;;;3.10;;
11086;SDS011;5597;47.588;9.642;2022-07-06T02:04:12;3.03;;;2.73;;
11086;SDS011;5597;47.588;9.642;2022-07-06T02:06:37;2.93;;;2.73;;
11086;SDS011;5597;47.588;9.642;2022-07-06T02:09:03;3.10;;;2.80;;
11086;SDS011;5597;47.588;9.642;2022-07-06T02:11:28;2.90;;;2.70;;
11086;SDS011;5597;47.588;9.642;2022-07-06T02:13:54;2.70;;;2.50;;
11086;SDS011;5597;47.588;9.642;2022-07-06T02:16:20;3.13;;;2.93;;
11086;SDS011;5597;47.588;9.642;2022-07-06T02:18:45;2.90;;;2.70;;
11086;SDS011;5597;47.588;9.642;2022-07-06T02:21:11;2.80;;;2.60;;
11086;SDS011;5597;47.588;9.642;2022-07-06T02:23:37;2.73;;;2.53;;
11086;SDS011;5597;47.588;9.642;2022-07-06T02:26:02;3.40;;;2.60;;
11086;SDS011;5597;47.588;9.642;2022-07-06T02:28:29;2.80;;;2.60;;
11086;SDS011;5597;47.588;9.642;2022-07-06T02:30:55;3.20;;;2.90;;
11086;SDS011;5597;47.588;9.642;2022-07-06T02:33:20;3.20;;;2.90;;
11086;SDS011;5597;47.588;9.642;2022-07-06T02:35:46;4.23;;;2.70;;
11086;SDS011;5597;47.588;9.642;2022-07-06T02:38:11;2.97;;;2.77;;
11086;SDS011;5597;47.588;9.642;2022-07-06T02:40:37;3.17;;;2.97;;
11086;SDS011;5597;47.588;9.642;2022-07-06T02:43:03;2.77;;;2.57;;
11086;SDS011;5597;47.588;9.642;2022-07-06T02:45:29;3.47;;;3.10;;
11086;SDS011;5597;47.588;9.642;2022-07-06T02:47:55;2.77;;;2.50;;
11086;SDS011;5597;47.588;9.642;2022-07-06T02:50:22;3.17;;;2.90;;
11086;SDS011;5597;47.588;9.642;2022-07-06T02:52:48;3.10;;;2.90;;
11086;SDS011;5597;47.588;9.642;2022-07-06T02:55:13;3.33;;;3.03;;
11086;SDS011;5597;47.588;9.642;2022-07-06T02:57:39;2.80;;;2.60;;
11086;SDS011;5597;47.588;9.642;2022-07-06T03:00:06;4.30;;;2.90;;
11086;SDS011;5597;47.588;9.642;2022-07-06T03:02:33;3.57;;;3.23;;
11086;SDS011;5597;47.588;9.642;2022-07-06T03:04:59;3.60;;;3.30;;
11086;SDS011;5597;47.588;9.642;2022-07-06T03:07:24;3.00;;;2.80;;
11086;SDS011;5597;47.588;9.642;2022-07-06T03:09:50;3.10;;;2.90;;
11086;SDS011;5597;47.588;9.642;2022-07-06T03:12:16;3.17;;;2.87;;
11086;SDS011;5597;47.588;9.642;2022-07-06T03:14:41;3.10;;;2.90;;
11086;SDS011;5597;47.588;9.642;2022-07-06T03:17:07;3.80;;;3.07;;
11086;SDS011;5597;47.588;9.642;2022-07-06T03:19:33;3.33;;;2.80;;
11086;SDS011;5597;47.588;9.642;2022-07-06T03:21:59;3.00;;;2.80;;
11086;SDS011;5597;47.588;9.642;2022-07-06T03:24:24;3.03;;;2.73;;
11086;SDS011;5597;47.588;9.642;2022-07-06T03:26:50;3.00;;;2.80;;
11086;SDS011;5597;47.588;9.642;2022-07-06T03:29:16;3.93;;;3.60;;
11086;SDS011;5597;47.588;9.642;2022-07-06T03:31:41;4.83;;;3.63;;
11086;SDS011;5597;47.588;9.642;2022-07-06T03:34:07;4.17;;;3.33;;
11086;SDS011;5597;47.588;9.642;2022-07-06T03:36:33;3.20;;;3.00;;
11086;SDS011;5597;47.588;9.642;2022-07-06T03:38:58;3.00;;;2.70;;
11086;SDS011;5597;47.588;9.642;2022-07-06T03:41:24;2.90;;;2.70;;
11086;SDS011;5597;47.588;9.642;2022-07-06T03:43:49;3.93;;;3.23;;
11086;SDS011;5597;47.588;9.642;2022-07-06T03:46:15;3.60;;;3.30;;
11086;SDS011;5597;47.588;9.642;2022-07-06T03:48:40;3.00;;;2.80;;
11086;SDS011;5597;47.588;9.642;2022-07-06T03:51:06;2.80;;;2.60;;
11086;SDS011;5597;47.588;9.642;2022-07-06T03:53:32;3.23;;;3.03;;
11086;SDS011;5597;47.588;9.642;2022-07-06T03:55:57;3.73;;;3.13;;
11086;SDS011;5597;47.588;9.642;2022-07-06T03:58:42;3.13;;;2.83;;
11086;SDS011;5597;47.588;9.642;2022-07-06T04:01:07;3.90;;;3.60;;
11086;SDS011;5597;47.588;9.642;2022-07-06T04:03:33;3.50;;;3.20;;
11086;SDS011;5597;47.588;9.642;2022-07-06T04:05:58;3.80;;;3.40;;
11086;SDS011;5597;47.588;9.642;2022-07-06T04:08:24;3.80;;;3.50;;
11086;SDS011;5597;47.588;9.642;2022-07-06T04:10:49;4.60;;;3.90;;
11086;SDS011;5597;47.588;9.642;2022-07-06T04:13:15;4.50;;;4.13;;
11086;SDS011;5597;47.588;9.642;2022-07-06T04:15:41;3.83;;;3.53;;
11086;SDS011;5597;47.588;9.642;2022-07-06T04:18:06;4.10;;;3.70;;
11086;SDS011;5597;47.588;9.642;2022-07-06T04:20:32;4.80;;;4.07;;
11086;SDS011;5597;47.588;9.642;2022-07-06T04:22:58;4.10;;;3.80;;
11086;SDS011;5597;47.588;9.642;2022-07-06T04:25:24;3.67;;;3.37;;
11086;SDS011;5597;47.588;9.642;2022-07-06T04:27:50;4.40;;;4.00;;
11086;SDS011;5597;47.588;9.642;2022-07-06T04:30:15;4.27;;;3.87;;
11086;SDS011;5597;47.588;9.642;2022-07-06T04:32:41;4.07;;;3.63;;
11086;SDS011;5597;47.588;9.642;2022-07-06T04:35:07;4.40;;;4.10;;
11086;SDS011;5597;47.588;9.642;2022-07-06T04:37:33;4.10;;;3.70;;
11086;SDS011;5597;47.588;9.642;2022-07-06T04:39:59;4.20;;;3.70;;
11086;SDS011;5597;47.588;9.642;2022-07-06T04:42:24;3.93;;;3.63;;
11086;SDS011;5597;47.588;9.642;2022-07-06T04:44:50;3.67;;;3.37;;
11086;SDS011;5597;47.588;9.642;2022-07-06T04:47:17;4.13;;;3.83;;
11086;SDS011;5597;47.588;9.642;2022-07-06T04:49:42;4.30;;;3.90;;
11086;SDS011;5597;47.588;9.642;2022-07-06T04:52:08;4.90;;;4.50;;
11086;SDS011;5597;47.588;9.642;2022-07-06T04:54:34;4.97;;;4.47;;
11086;SDS011;5597;47.588;9.642;2022-07-06T04:56:59;4.43;;;4.07;;
11086;SDS011;5597;47.588;9.642;2022-07-06T04:59:25;4.00;;;3.67;;
11086;SDS011;5597;47.588;9.642;2022-07-06T05:01:51;4.50;;;4.07;;
11086;SDS011;5597;47.588;9.642;2022-07-06T05:04:17;4.20;;;3.80;;
11086;SDS011;5597;47.588;9.642;2022-07-06T05:06:45;4.20;;;3.80;;
11086;SDS011;5597;47.588;9.642;2022-07-06T05:09:11;4.07;;;3.77;;
11086;SDS011;5597;47.588;9.642;2022-07-06T05:11:38;4.30;;;3.90;;
11086;SDS011;5597;47.588;9.642;2022-07-06T05:14:03;6.03;;;3.83;;
11086;SDS011;5597;47.588;9.642;2022-07-06T05:16:29;4.13;;;3.53;;
11086;SDS011;5597;47.588;9.642;2022-07-06T05:18:55;3.70;;;3.43;;
11086;SDS011;5597;47.588;9.642;2022-07-06T05:21:20;4.30;;;3.90;;
11086;SDS011;5597;47.588;9.642;2022-07-06T05:23:46;3.87;;;3.57;;
11086;SDS011;5597;47.588;9.642;2022-07-06T05:26:12;4.03;;;3.60;;
11086;SDS011;5597;47.588;9.642;2022-07-06T05:28:37;3.90;;;3.50;;
11086;SDS011;5597;47.588;9.642;2022-07-06T05:31:03;4.40;;;3.23;;
11086;SDS011;5597;47.588;9.642;2022-07-06T05:33:29;3.83;;;3.30;;
11086;SDS011;5597;47.588;9.642;2022-07-06T05:35:54;3.50;;;3.20;;
11086;SDS011;5597;47.588;9.642;2022-07-06T05:38:20;3.50;;;3.20;;
11086;SDS011;5597;47.588;9.642;2022-07-06T05:40:46;3.80;;;3.10;;
11086;SDS011;5597;47.588;9.642;2022-07-06T05:43:11;3.10;;;2.80;;
11086;SDS011;5597;47.588;9.642;2022-07-06T05:45:37;4.50;;;2.70;;
11086;SDS011;5597;47.588;9.642;2022-07-06T05:48:03;3.07;;;2.70;;
11086;SDS011;5597;47.588;9.642;2022-07-06T05:50:47;3.60;;;2.87;;
11086;SDS011;5597;47.588;9.642;2022-07-06T05:53:13;3.03;;;2.83;;
11086;SDS011;5597;47.588;9.642;2022-07-06T05:55:38;2.80;;;2.60;;
11086;SDS011;5597;47.588;9.642;2022-07-06T05:58:04;3.50;;;3.00;;
11086;SDS011;5597;47.588;9.642;2022-07-06T06:00:30;2.90;;;2.70;;
11086;SDS011;5597;47.588;9.642;2022-07-06T06:02:56;3.00;;;2.53;;
11086;SDS011;5597;47.588;9.642;2022-07-06T06:05:23;4.40;;;3.00;;
11086;SDS011;5597;47.588;9.642;2022-07-06T06:07:49;3.80;;;3.10;;
11086;SDS011;5597;47.588;9.642;2022-07-06T06:10:16;3.60;;;3.30;;
11086;SDS011;5597;47.588;9.642;2022-07-06T06:12:43;3.30;;;3.00;;
11086;SDS011;5597;47.588;9.642;2022-07-06T06:15:09;3.10;;;2.80;;
11086;SDS011;5597;47.588;9.642;2022-07-06T06:17:36;3.70;;;2.70;;
11086;SDS011;5597;47.588;9.642;2022-07-06T06:20:03;2.53;;;2.33;;
11086;SDS011;5597;47.588;9.642;2022-07-06T06:22:43;2.40;;;2.20;;
11086;SDS011;5597;47.588;9.642;2022-07-06T06:25:11;2.87;;;2.20;;
11086;SDS011;5597;47.588;9.642;2022-07-06T06:27:36;2.50;;;2.30;;
11086;SDS011;5597;47.588;9.642;2022-07-06T06:30:02;2.53;;;2.33;;
11086;SDS011;5597;47.588;9.642;2022-07-06T06:32:29;2.40;;;2.20;;
11086;SDS011;5597;47.588;9.642;2022-07-06T06:34:54;2.60;;;2.40;;
11086;SDS011;5597;47.588;9.642;2022-07-06T06:37:20;2.70;;;2.50;;
11086;SDS011;5597;47.588;9.642;2022-07-06T06:39:45;2.93;;;2.30;;
11086;SDS011;5597;47.588;9.642;2022-07-06T06:42:11;2.50;;;2.30;;
11086;SDS011;5597;47.588;9.642;2022-07-06T06:44:37;2.37;;;2.17;;
11086;SDS011;5597;47.588;9.642;2022-07-06T06:47:02;2.23;;;2.10;;
11086;SDS011;5597;47.588;9.642;2022-07-06T06:49:28;2.60;;;2.40;;
11086;SDS011;5597;47.588;9.642;2022-07-06T06:51:54;3.97;;;2.50;;
11086;SDS011;5597;47.588;9.642;2022-07-06T06:54:19;3.27;;;2.10;;
11086;SDS011;5597;47.588;9.642;2022-07-06T06:56:45;2.53;;;2.33;;
11086;SDS011;5597;47.588;9.642;2022-07-06T06:59:10;2.20;;;2.00;;
11086;SDS011;5597;47.588;9.642;2022-07-06T07:01:36;2.67;;;2.47;;
11086;SDS011;5597;47.588;9.642;2022-07-06T07:04:01;2.10;;;2.00;;
11086;SDS011;5597;47.588;9.642;2022-07-06T07:06:27;2.33;;;2.13;;
11086;SDS011;5597;47.588;9.642;2022-07-06T07:08:53;2.30;;;2.10;;
11086;SDS011;5597;47.588;9.642;2022-07-06T07:11:20;2.80;;;2.60;;
11086;SDS011;5597;47.588;9.642;2022-07-06T07:13:46;2.30;;;2.10;;
11086;SDS011;5597;47.588;9.642;2022-07-06T07:16:11;2.50;;;2.10;;
11086;SDS011;5597;47.588;9.642;2022-07-06T07:18:37;3.47;;;2.30;;
11086;SDS011;5597;47.588;9.642;2022-07-06T07:21:02;2.00;;;1.90;;
11086;SDS011;5597;47.588;9.642;2022-07-06T07:23:28;2.87;;;2.30;;
11086;SDS011;5597;47.588;9.642;2022-07-06T07:25:54;3.47;;;2.17;;
11086;SDS011;5597;47.588;9.642;2022-07-06T07:28:19;2.83;;;2.30;;
11086;SDS011;5597;47.588;9.642;2022-07-06T07:30:45;2.63;;;2.40;;
11086;SDS011;5597;47.588;9.642;2022-07-06T07:33:10;2.87;;;2.63;;
11086;SDS011;5597;47.588;9.642;2022-07-06T07:35:36;2.73;;;2.20;;
11086;SDS011;5597;47.588;9.642;2022-07-06T07:38:01;2.60;;;2.40;;
11086;SDS011;5597;47.588;9.642;2022-07-06T07:40:27;2.50;;;2.27;;
11086;SDS011;5597;47.588;9.642;2022-07-06T07:42:53;2.60;;;2.20;;
11086;SDS011;5597;47.588;9.642;2022-07-06T07:45:18;2.40;;;2.20;;
11086;SDS011;5597;47.588;9.642;2022-07-06T07:47:44;2.53;;;2.20;;
11086;SDS011;5597;47.588;9.642;2022-07-06T07:50:10;2.70;;;2.50;;
11086;SDS011;5597;47.588;9.642;2022-07-06T07:52:36;2.70;;;2.50;;
11086;SDS011;5597;47.588;9.642;2022-07-06T07:55:02;3.00;;;2.53;;
11086;SDS011;5597;47.588;9.642;2022-07-06T07:57:27;2.70;;;2.50;;
11086;SDS011;5597;47.588;9.642;2022-07-06T07:59:53;3.43;;;2.40;;
11086;SDS011;5597;47.588;9.642;2022-07-06T08:02:19;2.30;;;2.10;;
11086;SDS011;5597;47.588;9.642;2022-07-06T08:04:44;3.77;;;2.53;;
11086;SDS011;5597;47.588;9.642;2022-07-06T08:07:10;2.43;;;2.23;;
11086;SDS011;5597;47.588;9.642;2022-07-06T08:09:35;2.30;;;2.10;;
11086;SDS011;5597;47.588;9.642;2022-07-06T08:12:01;2.43;;;2.23;;
11086;SDS011;5597;47.588;9.642;2022-07-06T08:14:27;2.60;;;2.37;;
11086;SDS011;5597;47.588;9.642;2022-07-06T08:16:53;2.53;;;2.33;;
11086;SDS011;5597;47.588;9.642;2022-07-06T08:19:18;2.43;;;2.20;;
11086;SDS011;5597;47.588;9.642;2022-07-06T08:21:44;3.20;;;2.47;;
11086;SDS011;5597;47.588;9.642;2022-07-06T08:24:10;3.03;;;2.20;;
11086;SDS011;5597;47.588;9.642;2022-07-06T08:26:36;2.60;;;2.40;;
11086;SDS011;5597;47.588;9.642;2022-07-06T08:29:02;2.30;;;2.20;;
11086;SDS011;5597;47.588;9.642;2022-07-06T08:31:28;4.03;;;2.97;;
11086;SDS011;5597;47.588;9.642;2022-07-06T08:33:54;2.50;;;2.30;;
11086;SDS011;5597;47.588;9.642;2022-07-06T08:36:21;3.20;;;2.90;;
11086;SDS011;5597;47.588;9.642;2022-07-06T08:38:47;2.63;;;2.43;;
11086;SDS011;5597;47.588;9.642;2022-07-06T08:41:16;2.90;;;2.70;;
11086;SDS011;5597;47.588;9.642;2022-07-06T08:43:44;3.47;;;2.40;;
11086;SDS011;5597;47.588;9.642;2022-07-06T08:46:10;2.40;;;2.20;;
11086;SDS011;5597;47.588;9.642;2022-07-06T08:48:39;2.67;;;2.43;;
11086;SDS011;5597;47.588;9.642;2022-07-06T08:51:05;2.20;;;2.00;;
11086;SDS011;5597;47.588;9.642;2022-07-06T08:53:32;2.80;;;2.60;;
11086;SDS011;5597;47.588;9.642;2022-07-06T08:55:58;2.80;;;2.37;;
11086;SDS011;5597;47.588;9.642;2022-07-06T08:58:26;3.30;;;2.60;;
11086;SDS011;5597;47.588;9.642;2022-07-06T09:00:53;4.17;;;2.60;;
11086;SDS011;5597;47.588;9.642;2022-07-06T09:03:19;2.70;;;2.50;;
11086;SDS011;5597;47.588;9.642;2022-07-06T09:05:45;2.73;;;2.53;;
11086;SDS011;5597;47.588;9.642;2022-07-06T09:08:12;2.97;;;2.67;;
11086;SDS011;5597;47.588;9.642;2022-07-06T09:10:38;3.00;;;2.60;;
11086;SDS011;5597;47.588;9.642;2022-07-06T09:13:04;3.07;;;2.77;;
11086;SDS011;5597;47.588;9.642;2022-07-06T09:15:32;2.50;;;2.30;;
11086;SDS011;5597;47.588;9.642;2022-07-06T09:17:59;3.27;;;2.87;;
11086;SDS011;5597;47.588;9.642;2022-07-06T09:20:25;2.30;;;2.20;;
11086;SDS011;5597;47.588;9.642;2022-07-06T09:22:50;3.10;;;2.70;;
11086;SDS011;5597;47.588;9.642;2022-07-06T09:25:22;2.30;;;2.10;;
11086;SDS011;5597;47.588;9.642;2022-07-06T09:27:49;2.87;;;2.67;;
11086;SDS011;5597;47.588;9.642;2022-07-06T09:30:19;2.53;;;2.20;;
11086;SDS011;5597;47.588;9.642;2022-07-06T09:32:46;3.23;;;2.60;;
11086;SDS011;5597;47.588;9.642;2022-07-06T09:38:12;5.03;;;2.60;;
11086;SDS011;5597;47.588;9.642;2022-07-06T09:40:38;3.30;;;2.50;;
11086;SDS011;5597;47.588;9.642;2022-07-06T09:43:12;3.13;;;2.30;;
11086;SDS011;5597;47.588;9.642;2022-07-06T09:45:54;3.20;;;2.50;;
11086;SDS011;5597;47.588;9.642;2022-07-06T09:50:48;3.53;;;2.50;;
11086;SDS011;5597;47.588;9.642;2022-07-06T09:53:18;2.57;;;2.10;;
11086;SDS011;5597;47.588;9.642;2022-07-06T09:55:49;2.60;;;2.40;;
11086;SDS011;5597;47.588;9.642;2022-07-06T09:58:16;2.60;;;2.40;;
11086;SDS011;5597;47.588;9.642;2022-07-06T10:00:43;3.00;;;2.50;;
11086;SDS011;5597;47.588;9.642;2022-07-06T10:03:09;3.03;;;2.60;;
11086;SDS011;5597;47.588;9.642;2022-07-06T10:05:36;4.20;;;2.53;;
11086;SDS011;5597;47.588;9.642;2022-07-06T10:08:07;2.60;;;2.40;;
11086;SDS011;5597;47.588;9.642;2022-07-06T10:10:37;2.90;;;2.60;;
11086;SDS011;5597;47.588;9.642;2022-07-06T10:13:05;2.30;;;2.10;;
11086;SDS011;5597;47.588;9.642;2022-07-06T10:15:31;2.30;;;2.10;;
11086;SDS011;5597;47.588;9.642;2022-07-06T10:17:59;2.20;;;2.00;;
11086;SDS011;5597;47.588;9.642;2022-07-06T10:20:29;2.40;;;2.20;;
11086;SDS011;5597;47.588;9.642;2022-07-06T10:23:02;2.13;;;2.00;;
11086;SDS011;5597;47.588;9.642;2022-07-06T10:25:28;3.87;;;2.10;;
11086;SDS011;5597;47.588;9.642;2022-07-06T10:27:55;3.43;;;2.03;;
11086;SDS011;5597;47.588;9.642;2022-07-06T10:30:21;2.57;;;2.00;;
11086;SDS011;5597;47.588;9.642;2022-07-06T10:32:48;2.07;;;1.87;;
11086;SDS011;5597;47.588;9.642;2022-07-06T10:35:16;3.80;;;2.00;;
11086;SDS011;5597;47.588;9.642;2022-07-06T10:37:44;2.20;;;2.00;;
11086;SDS011;5597;47.588;9.642;2022-07-06T10:40:12;2.83;;;2.00;;
11086;SDS011;5597;47.588;9.642;2022-07-06T10:42:58;2.33;;;2.00;;
11086;SDS011;5597;47.588;9.642;2022-07-06T10:50:51;3.27;;;2.43;;
11086;SDS011;5597;47.588;9.642;2022-07-06T10:53:25;3.10;;;2.00;;
11086;SDS011;5597;47.588;9.642;2022-07-06T10:55:52;2.13;;;1.93;;
11086;SDS011;5597;47.588;9.642;2022-07-06T10:58:36;2.33;;;2.13;;
11086;SDS011;5597;47.588;9.642;2022-07-06T11:01:09;4.10;;;2.37;;
11086;SDS011;5597;47.588;9.642;2022-07-06T11:03:48;5.07;;;2.40;;
11086;SDS011;5597;47.588;9.642;2022-07-06T11:06:19;2.50;;;2.10;;
11086;SDS011;5597;47.588;9.642;2022-07-06T11:08:50;4.40;;;2.10;;
11086;SDS011;5597;47.588;9.642;2022-07-06T11:11:18;2.47;;;2.00;;
11086;SDS011;5597;47.588;9.642;2022-07-06T11:14:04;2.00;;;1.80;;
11086;SDS011;5597;47.588;9.642;2022-07-06T11:16:36;2.13;;;1.93;;
11086;SDS011;5597;47.588;9.642;2022-07-06T11:19:17;2.10;;;1.90;;
11086;SDS011;5597;47.588;9.642;2022-07-06T11:24:18;3.17;;;2.00;;
11086;SDS011;5597;47.588;9.642;2022-07-06T11:26:46;5.17;;;1.90;;
11086;SDS011;5597;47.588;9.642;2022-07-06T11:29:13;9.57;;;3.00;;
11086;SDS011;5597;47.588;9.642;2022-07-06T11:31:41;6.07;;;2.80;;
11086;SDS011;5597;47.588;9.642;2022-07-06T11:34:08;5.47;;;2.43;;
11086;SDS011;5597;47.588;9.642;2022-07-06T11:36:36;4.10;;;2.40;;
11086;SDS011;5597;47.588;9.642;2022-07-06T11:39:03;9.90;;;3.43;;
11086;SDS011;5597;47.588;9.642;2022-07-06T11:41:30;5.00;;;2.70;;
11086;SDS011;5597;47.588;9.642;2022-07-06T11:43:56;2.10;;;1.80;;
11086;SDS011;5597;47.588;9.642;2022-07-06T11:48:48;2.10;;;1.90;;
11086;SDS011;5597;47.588;9.642;2022-07-06T11:51:14;2.00;;;1.70;;
11086;SDS011;5597;47.588;9.642;2022-07-06T11:53:44;2.83;;;1.70;;
11086;SDS011;5597;47.588;9.642;2022-07-06T11:56:12;2.33;;;2.03;;
11086;SDS011;5597;47.588;9.642;2022-07-06T11:58:39;2.73;;;2.03;;
11086;SDS011;5597;47.588;9.642;2022-07-06T12:01:09;2.20;;;2.00;;
11086;SDS011;5597;47.588;9.642;2022-07-06T12:03:35;2.20;;;2.00;;
11086;SDS011;5597;47.588;9.642;2022-07-06T12:06:05;3.03;;;1.87;;
11086;SDS011;5597;47.588;9.642;2022-07-06T12:08:44;3.53;;;1.90;;
11086;SDS011;5597;47.588;9.642;2022-07-06T12:11:16;3.07;;;2.20;;
11086;SDS011;5597;47.588;9.642;2022-07-06T12:13:46;4.43;;;2.07;;
11086;SDS011;5597;47.588;9.642;2022-07-06T12:16:12;2.07;;;1.97;;
11086;SDS011;5597;47.588;9.642;2022-07-06T12:18:40;2.97;;;1.87;;
11086;SDS011;5597;47.588;9.642;2022-07-06T12:21:07;3.07;;;1.97;;
11086;SDS011;5597;47.588;9.642;2022-07-06T12:23:44;2.67;;;2.17;;
11086;SDS011;5597;47.588;9.642;2022-07-06T12:26:12;7.70;;;2.90;;
11086;SDS011;5597;47.588;9.642;2022-07-06T12:28:39;2.23;;;1.97;;
11086;SDS011;5597;47.588;9.642;2022-07-06T12:31:05;2.13;;;1.97;;
11086;SDS011;5597;47.588;9.642;2022-07-06T12:33:31;5.20;;;1.90;;
11086;SDS011;5597;47.588;9.642;2022-07-06T12:35:57;3.23;;;2.40;;
11086;SDS011;5597;47.588;9.642;2022-07-06T12:38:34;2.53;;;2.07;;
11086;SDS011;5597;47.588;9.642;2022-07-06T12:40:59;1.80;;;1.70;;
11086;SDS011;5597;47.588;9.642;2022-07-06T12:43:37;2.43;;;1.80;;
11086;SDS011;5597;47.588;9.642;2022-07-06T12:48:57;1.83;;;1.70;;
11086;SDS011;5597;47.588;9.642;2022-07-06T12:51:24;1.80;;;1.70;;
11086;SDS011;5597;47.588;9.642;2022-07-06T12:53:50;1.80;;;1.70;;
11086;SDS011;5597;47.588;9.642;2022-07-06T12:56:15;15.60;;;2.90;;
11086;SDS011;5597;47.588;9.642;2022-07-06T12:58:58;6.27;;;2.67;;
11086;SDS011;5597;47.588;9.642;2022-07-06T13:01:24;3.63;;;1.77;;
11086;SDS011;5597;47.588;9.642;2022-07-06T13:03:54;2.50;;;1.70;;
11086;SDS011;5597;47.588;9.642;2022-07-06T13:06:31;2.77;;;1.80;;
11086;SDS011;5597;47.588;9.642;2022-07-06T13:08:58;1.80;;;1.57;;
11086;SDS011;5597;47.588;9.642;2022-07-06T13:11:24;1.60;;;1.50;;
11086;SDS011;5597;47.588;9.642;2022-07-06T13:13:49;1.83;;;1.47;;
11086;SDS011;5597;47.588;9.642;2022-07-06T13:16:15;2.10;;;1.47;;
11086;SDS011;5597;47.588;9.642;2022-07-06T13:18:41;2.20;;;1.57;;
11086;SDS011;5597;47.588;9.642;2022-07-06T13:21:07;1.80;;;1.60;;
11086;SDS011;5597;47.588;9.642;2022-07-06T13:23:32;2.07;;;1.37;;
11086;SDS011;5597;47.588;9.642;2022-07-06T13:25:58;1.90;;;1.60;;
11086;SDS011;5597;47.588;9.642;2022-07-06T13:28:24;2.17;;;1.47;;
11086;SDS011;5597;47.588;9.642;2022-07-06T13:30:49;1.60;;;1.50;;
11086;SDS011;5597;47.588;9.642;2022-07-06T13:33:15;1.67;;;1.40;;
11086;SDS011;5597;47.588;9.642;2022-07-06T13:35:40;1.57;;;1.40;;
11086;SDS011;5597;47.588;9.642;2022-07-06T13:38:06;1.70;;;1.60;;
11086;SDS011;5597;47.588;9.642;2022-07-06T13:40:31;1.50;;;1.40;;
11086;SDS011;5597;47.588;9.642;2022-07-06T13:42:59;1.77;;;1.30;;
11086;SDS011;5597;47.588;9.642;2022-07-06T13:45:25;3.17;;;1.40;;
11086;SDS011;5597;47.588;9.642;2022-07-06T13:47:51;2.30;;;1.40;;
11086;SDS011;5597;47.588;9.642;2022-07-06T13:50:16;2.10;;;1.27;;
11086;SDS011;5597;47.588;9.642;2022-07-06T13:52:42;1.50;;;1.33;;
11086;SDS011;5597;47.588;9.642;2022-07-06T13:55:07;1.70;;;1.30;;
11086;SDS011;5597;47.588;9.642;2022-07-06T13:57:34;2.33;;;1.40;;
11086;SDS011;5597;47.588;9.642;2022-07-06T14:00:00;2.70;;;1.30;;
11086;SDS011;5597;47.588;9.642;2022-07-06T14:02:26;2.13;;;1.30;;
11086;SDS011;5597;47.588;9.642;2022-07-06T14:04:51;1.30;;;1.20;;
11086;SDS011;5597;47.588;9.642;2022-07-06T14:07:17;1.30;;;1.20;;
11086;SDS011;5597;47.588;9.642;2022-07-06T14:09:43;2.33;;;1.70;;
11086;SDS011;5597;47.588;9.642;2022-07-06T14:12:08;1.30;;;1.20;;
11086;SDS011;5597;47.588;9.642;2022-07-06T14:14:34;1.40;;;1.30;;
11086;SDS011;5597;47.588;9.642;2022-07-06T14:17:00;1.37;;;1.20;;
11086;SDS011;5597;47.588;9.642;2022-07-06T14:19:25;2.13;;;1.30;;
11086;SDS011;5597;47.588;9.642;2022-07-06T14:21:51;1.47;;;1.30;;
11086;SDS011;5597;47.588;9.642;2022-07-06T14:24:17;2.57;;;1.20;;
11086;SDS011;5597;47.588;9.642;2022-07-06T14:26:42;2.57;;;1.30;;
11086;SDS011;5597;47.588;9.642;2022-07-06T14:29:08;2.47;;;1.30;;
11086;SDS011;5597;47.588;9.642;2022-07-06T14:31:34;1.67;;;1.20;;
11086;SDS011;5597;47.588;9.642;2022-07-06T14:33:59;1.87;;;1.33;;
11086;SDS011;5597;47.588;9.642;2022-07-06T14:36:25;1.53;;;1.27;;
11086;SDS011;5597;47.588;9.642;2022-07-06T14:38:50;2.37;;;1.23;;
11086;SDS011;5597;47.588;9.642;2022-07-06T14:41:16;1.93;;;1.20;;
11086;SDS011;5597;47.588;9.642;2022-07-06T14:43:42;2.60;;;1.40;;
11086;SDS011;5597;47.588;9.642;2022-07-06T14:46:08;1.40;;;1.20;;
11086;SDS011;5597;47.588;9.642;2022-07-06T14:48:34;2.13;;;1.30;;
11086;SDS011;5597;47.588;9.642;2022-07-06T14:50:59;2.87;;;1.57;;
11086;SDS011;5597;47.588;9.642;2022-07-06T14:53:25;2.03;;;1.30;;
11086;SDS011;5597;47.588;9.642;2022-07-06T14:55:51;1.80;;;1.20;;
11086;SDS011;5597;47.588;9.642;2022-07-06T14:58:17;2.47;;;1.30;;
11086;SDS011;5597;47.588;9.642;2022-07-06T15:00:43;1.67;;;1.30;;
11086;SDS011;5597;47.588;9.642;2022-07-06T15:03:12;1.30;;;1.20;;
11086;SDS011;5597;47.588;9.642;2022-07-06T15:05:38;1.43;;;1.27;;
11086;SDS011;5597;47.588;9.642;2022-07-06T15:08:04;1.30;;;1.20;;
11086;SDS011;5597;47.588;9.642;2022-07-06T15:10:30;1.43;;;1.20;;
11086;SDS011;5597;47.588;9.642;2022-07-06T15:12:56;1.47;;;1.20;;
11086;SDS011;5597;47.588;9.642;2022-07-06T15:15:22;1.97;;;1.20;;
11086;SDS011;5597;47.588;9.642;2022-07-06T15:17:47;1.30;;;1.20;;